createdAt,value
2019-01-20T00:00:07.953Z,101082.55
2019-01-20T00:02:37.168Z,101078.40
2019-01-20T00:05:08.380Z,101085.67
2019-01-20T00:07:37.540Z,101088.62
2019-01-20T00:10:08.634Z,101091.63
2019-01-20T00:12:37.621Z,101089.73
2019-01-20T00:15:07.333Z,101091.63
2019-01-20T00:17:36.487Z,101102.72
2019-01-20T00:20:08.264Z,101098.97
2019-01-20T00:22:37.421Z,101098.20
2019-01-20T00:25:06.950Z,101103.36
2019-01-20T00:27:36.089Z,101101.25
2019-01-20T00:30:06.743Z,101106.41
2019-01-20T00:32:35.947Z,101106.41
2019-01-20T00:35:05.838Z,101114.52
2019-01-20T00:37:34.856Z,101112.27
2019-01-20T00:40:04.253Z,101114.17
2019-01-20T00:42:33.450Z,101114.69
2019-01-20T00:45:03.245Z,101114.17
2019-01-20T00:47:32.577Z,101115.87
2019-01-20T00:50:01.735Z,101117.01
2019-01-20T00:52:31.572Z,101116.83
2019-01-20T00:55:01.262Z,101114.47
2019-01-20T00:57:30.494Z,101118.77
2019-01-20T00:59:59.606Z,101116.55
2019-01-20T01:02:28.957Z,101120.30
2019-01-20T01:04:58.513Z,101121.64
2019-01-20T01:07:27.817Z,101131.11
2019-01-20T01:09:56.998Z,101128.61
2019-01-20T01:12:26.178Z,101125.33
2019-01-20T01:14:55.294Z,101127.38
2019-01-20T01:17:24.387Z,101132.75
2019-01-20T01:19:53.498Z,101131.39
2019-01-20T01:22:22.680Z,101133.84
2019-01-20T01:24:51.852Z,101137.42
2019-01-20T01:27:20.974Z,101142.89
2019-01-20T01:29:51.030Z,101149.16
2019-01-20T01:32:20.094Z,101146.17
2019-01-20T01:34:49.140Z,101149.98
2019-01-20T01:37:18.230Z,101152.14
2019-01-20T01:39:47.336Z,101153.31
2019-01-20T01:42:16.441Z,101153.66
2019-01-20T01:44:45.567Z,101164.22
2019-01-20T01:47:15.165Z,101166.47
2019-01-20T01:49:44.340Z,101166.75
2019-01-20T01:52:13.858Z,101164.56
2019-01-20T01:54:43.682Z,101175.62
2019-01-20T01:57:12.838Z,101172.05
2019-01-20T01:59:41.940Z,101180.92
2019-01-20T02:02:11.034Z,101177.63
2019-01-20T02:04:40.161Z,101183.88
2019-01-20T02:07:09.383Z,101185.47
2019-01-20T02:09:39.240Z,101195.69
2019-01-20T02:12:08.430Z,101199.15
2019-01-20T02:14:37.540Z,101200.67
2019-01-20T02:17:06.636Z,101207.09
2019-01-20T02:19:37.456Z,101206.45
2019-01-20T02:22:08.128Z,101210.44
2019-01-20T02:24:37.197Z,101216.91
2019-01-20T02:27:06.278Z,101210.09
2019-01-20T02:29:35.414Z,101212.44
2019-01-20T02:32:04.780Z,101221.55
2019-01-20T02:34:33.784Z,101217.97
2019-01-20T02:37:02.858Z,101214.92
2019-01-20T02:39:31.900Z,101220.53
2019-01-20T02:42:01.074Z,101227.28
2019-01-20T02:44:30.113Z,101239.44
2019-01-20T02:46:59.172Z,101243.21
2019-01-20T02:49:28.651Z,101244.84
2019-01-20T02:51:57.734Z,101245.62
2019-01-20T02:54:26.877Z,101241.58
2019-01-20T02:56:56.032Z,101247.27
2019-01-20T02:59:25.589Z,101248.13
2019-01-20T03:01:54.672Z,101249.04
2019-01-20T03:04:25.548Z,101251.15
2019-01-20T03:06:52.981Z,101248.26
2019-01-20T03:09:22.042Z,101249.25
2019-01-20T03:11:51.199Z,101259.22
2019-01-20T03:14:20.301Z,101261.09
2019-01-20T03:16:49.461Z,101262.68
2019-01-20T03:19:18.650Z,101266.69
2019-01-20T03:21:47.828Z,101272.09
2019-01-20T03:24:16.839Z,101270.97
2019-01-20T03:26:45.907Z,101270.14
2019-01-20T03:29:15.013Z,101272.25
2019-01-20T03:31:44.073Z,101269.27
2019-01-20T03:34:13.152Z,101277.05
2019-01-20T03:36:42.315Z,101274.08
2019-01-20T03:39:11.610Z,101274.08
2019-01-20T03:41:40.970Z,101279.00
2019-01-20T03:44:10.042Z,101283.33
2019-01-20T03:46:39.100Z,101279.08
2019-01-20T03:49:08.163Z,101281.70
2019-01-20T03:51:37.278Z,101284.92
2019-01-20T03:54:06.493Z,101292.50
2019-01-20T03:56:35.676Z,101294.69
2019-01-20T03:59:04.922Z,101294.69
2019-01-20T04:01:34.668Z,101293.33
2019-01-20T04:04:03.849Z,101297.63
2019-01-20T04:06:32.890Z,101292.22
2019-01-20T04:09:01.997Z,101293.85
2019-01-20T04:11:31.133Z,101297.07
2019-01-20T04:14:00.415Z,101302.94
2019-01-20T04:16:29.526Z,101304.69
2019-01-20T04:18:58.644Z,101298.84
2019-01-20T04:21:27.696Z,101299.60
2019-01-20T04:23:56.846Z,101304.13
2019-01-20T04:26:25.882Z,101308.17
2019-01-20T04:28:55.067Z,101307.89
2019-01-20T04:31:24.193Z,101311.63
2019-01-20T04:33:53.430Z,101317.34
2019-01-20T04:36:22.831Z,101310.87
2019-01-20T04:38:51.913Z,101311.70
2019-01-20T04:41:20.993Z,101311.38
2019-01-20T04:43:50.049Z,101321.66
2019-01-20T04:46:19.191Z,101315.67
2019-01-20T04:48:48.234Z,101321.82
2019-01-20T04:51:17.349Z,101320.11
2019-01-20T04:53:46.527Z,101320.05
2019-01-20T04:56:15.674Z,101326.95
2019-01-20T04:58:45.248Z,101334.14
2019-01-20T05:01:14.411Z,101332.19
2019-01-20T05:03:43.478Z,101336.67
2019-01-20T05:06:12.601Z,101337.45
2019-01-20T05:08:44.502Z,101338.20
2019-01-20T05:11:13.598Z,101330.86
2019-01-20T05:13:42.796Z,101331.89
2019-01-20T05:16:11.875Z,101338.95
2019-01-20T05:18:41.066Z,101345.70
2019-01-20T05:21:10.938Z,101346.21
2019-01-20T05:23:40.047Z,101343.75
2019-01-20T05:26:09.212Z,101345.56
2019-01-20T05:28:38.362Z,101355.00
2019-01-20T05:31:07.521Z,101352.45
2019-01-20T05:33:36.697Z,101359.34
2019-01-20T05:36:05.996Z,101368.13
2019-01-20T05:38:35.179Z,101378.23
2019-01-20T05:41:04.322Z,101376.79
2019-01-20T05:43:33.383Z,101375.06
2019-01-20T05:46:02.509Z,101388.04
2019-01-20T05:48:32.864Z,101384.88
2019-01-20T05:51:00.837Z,101389.33
2019-01-20T05:53:30.142Z,101389.91
2019-01-20T05:55:59.867Z,101394.64
2019-01-20T05:58:28.938Z,101392.40
2019-01-20T06:00:58.055Z,101395.75
2019-01-20T06:03:27.219Z,101402.41
2019-01-20T06:05:56.439Z,101406.68
2019-01-20T06:08:25.515Z,101411.47
2019-01-20T06:10:54.612Z,101412.81
2019-01-20T06:13:23.736Z,101412.81
2019-01-20T06:15:52.789Z,101418.81
2019-01-20T06:18:21.933Z,101425.05
2019-01-20T06:20:51.063Z,101426.16
2019-01-20T06:23:21.022Z,101430.07
2019-01-20T06:25:51.662Z,101428.58
2019-01-20T06:43:09.794Z,101447.76
2019-01-20T06:45:39.082Z,101457.80
2019-01-20T06:48:08.204Z,101459.44
2019-01-20T06:50:37.485Z,101462.37
2019-01-20T06:53:06.618Z,101463.48
2019-01-20T06:55:35.741Z,101468.88
2019-01-20T06:58:05.071Z,101464.03
2019-01-20T07:00:34.176Z,101464.03
2019-01-20T07:03:03.280Z,101475.43
2019-01-20T07:05:32.426Z,101477.06
2019-01-20T07:08:01.591Z,101482.55
2019-01-20T07:10:30.839Z,101478.05
2019-01-20T07:12:59.900Z,101482.47
2019-01-20T07:15:29.062Z,101493.36
2019-01-20T07:17:58.141Z,101492.14
2019-01-20T07:20:27.250Z,101497.55
2019-01-20T07:22:56.490Z,101501.59
2019-01-20T07:25:25.659Z,101506.98
2019-01-20T07:27:54.767Z,101515.69
2019-01-20T07:30:24.431Z,101508.34
2019-01-20T07:32:53.554Z,101522.95
2019-01-20T07:35:22.905Z,101522.95
2019-01-20T07:37:52.334Z,101529.60
2019-01-20T07:40:23.125Z,101538.24
2019-01-20T07:42:52.230Z,101538.98
2019-01-20T07:45:21.412Z,101548.42
2019-01-20T07:47:50.662Z,101545.95
2019-01-20T07:50:21.576Z,101552.16
2019-01-20T07:52:50.734Z,101557.36
2019-01-20T07:55:20.053Z,101562.75
2019-01-20T07:57:49.223Z,101569.50
2019-01-20T08:00:21.454Z,101574.06
2019-01-20T08:02:50.698Z,101579.00
2019-01-20T08:05:20.087Z,101580.22
2019-01-20T08:07:49.495Z,101580.83
2019-01-20T08:10:23.609Z,101590.05
2019-01-20T08:12:52.729Z,101588.47
2019-01-20T08:15:21.923Z,101586.61
2019-01-20T08:17:51.144Z,101595.59
2019-01-20T08:20:20.654Z,101601.61
2019-01-20T08:22:49.956Z,101606.72
2019-01-20T08:25:19.208Z,101614.11
2019-01-20T08:27:48.429Z,101626.19
2019-01-20T08:30:19.452Z,101633.97
2019-01-20T08:32:48.661Z,101645.08
2019-01-20T08:35:17.836Z,101639.68
2019-01-20T08:37:47.140Z,101648.06
2019-01-20T08:40:21.996Z,101644.41
2019-01-20T08:42:51.110Z,101641.09
2019-01-20T08:45:29.360Z,101649.86
2019-01-20T08:48:03.787Z,101659.47
2019-01-20T08:50:32.964Z,101667.95
2019-01-20T08:53:02.083Z,101673.67
2019-01-20T08:55:31.280Z,101676.88
2019-01-20T08:58:00.485Z,101677.39
2019-01-20T09:00:29.578Z,101694.20
2019-01-20T09:02:58.680Z,101687.55
2019-01-20T09:05:27.801Z,101696.26
2019-01-20T09:07:56.882Z,101696.45
2019-01-20T09:10:27.711Z,101705.26
2019-01-20T09:12:59.759Z,101714.48
2019-01-20T09:15:29.070Z,101717.56
2019-01-20T09:17:58.786Z,101720.04
2019-01-20T09:20:27.981Z,101727.63
2019-01-20T09:22:57.102Z,101730.42
2019-01-20T09:25:26.268Z,101733.73
2019-01-20T09:27:55.393Z,101741.06
2019-01-20T09:30:24.581Z,101750.61
2019-01-20T09:32:53.778Z,101749.36
2019-01-20T09:35:23.782Z,101749.42
2019-01-20T09:37:52.982Z,101749.80
2019-01-20T09:40:22.183Z,101753.11
2019-01-20T09:42:51.682Z,101760.47
2019-01-20T09:45:26.847Z,101764.08
2019-01-20T09:47:57.459Z,101773.40
2019-01-20T09:50:26.576Z,101774.10
2019-01-20T09:52:55.952Z,101773.94
2019-01-20T09:55:26.576Z,101780.05
2019-01-20T09:57:55.950Z,101783.13
2019-01-20T10:00:26.931Z,101791.61
2019-01-20T10:02:56.669Z,101796.34
2019-01-20T10:05:26.438Z,101796.20
2019-01-20T10:07:55.738Z,101802.37
2019-01-20T10:10:24.811Z,101802.52
2019-01-20T10:12:53.931Z,101799.62
2019-01-20T10:15:26.916Z,101803.22
2019-01-20T10:17:56.108Z,101808.48
2019-01-20T10:20:28.275Z,101804.06
2019-01-20T10:22:57.321Z,101816.90
2019-01-20T10:25:26.479Z,101815.17
2019-01-20T10:27:55.709Z,101818.34
2019-01-20T10:30:27.252Z,101823.38
2019-01-20T10:32:56.421Z,101828.19
2019-01-20T10:35:29.957Z,101823.76
2019-01-20T10:38:00.305Z,101830.95
2019-01-20T10:40:32.296Z,101829.22
2019-01-20T10:43:00.375Z,101833.42
2019-01-20T10:45:29.481Z,101838.41
2019-01-20T10:47:58.539Z,101844.70
2019-01-20T10:50:27.861Z,101849.97
2019-01-20T10:52:57.363Z,101852.22
2019-01-20T10:55:26.431Z,101856.13
2019-01-20T10:57:55.589Z,101858.14
2019-01-20T11:00:27.325Z,101864.23
2019-01-20T11:02:56.792Z,101870.55
2019-01-20T11:05:30.342Z,101869.04
2019-01-20T11:07:55.144Z,101875.34
2019-01-20T11:10:25.564Z,101871.45
2019-01-20T11:12:55.687Z,101872.85
2019-01-20T11:15:24.797Z,101874.30
2019-01-20T11:17:53.995Z,101877.60
2019-01-20T11:20:23.441Z,101879.84
2019-01-20T11:22:52.623Z,101892.11
2019-01-20T11:25:26.631Z,101886.75
2019-01-20T11:27:55.761Z,101886.23
2019-01-20T11:30:24.955Z,101890.53
2019-01-20T11:32:54.097Z,101887.50
2019-01-20T11:35:23.975Z,101892.62
2019-01-20T11:37:53.572Z,101895.02
2019-01-20T11:40:25.299Z,101900.44
2019-01-20T11:42:58.272Z,101903.98
2019-01-20T11:45:34.593Z,101903.47
2019-01-20T11:48:04.744Z,101905.42
2019-01-20T11:50:35.365Z,101911.96
2019-01-20T11:53:04.994Z,101907.30
2019-01-20T11:55:34.484Z,101912.72
2019-01-20T11:58:03.682Z,101907.90
2019-01-20T12:00:35.853Z,101903.92
2019-01-20T12:03:05.615Z,101902.93
2019-01-20T12:05:36.243Z,101909.84
2019-01-20T12:08:05.553Z,101902.59
2019-01-20T12:10:35.946Z,101913.05
2019-01-20T12:13:08.472Z,101910.45
2019-01-20T12:15:39.375Z,101903.80
2019-01-20T12:18:08.892Z,101900.70
2019-01-20T12:20:41.000Z,101905.37
2019-01-20T12:23:10.862Z,101902.94
2019-01-20T12:25:40.270Z,101904.89
2019-01-20T12:28:09.653Z,101920.09
2019-01-20T12:30:39.848Z,101921.80
2019-01-20T12:33:14.014Z,101917.81
2019-01-20T12:35:43.104Z,101920.05
2019-01-20T12:38:12.316Z,101931.58
2019-01-20T12:40:44.419Z,101926.20
2019-01-20T12:43:13.659Z,101929.23
2019-01-20T12:45:42.950Z,101936.00
2019-01-20T12:48:13.274Z,101934.33
2019-01-20T12:50:43.005Z,101938.87
2019-01-20T12:53:12.164Z,101936.11
2019-01-20T12:55:41.851Z,101943.09
2019-01-20T12:58:11.096Z,101935.72
2019-01-20T13:00:40.258Z,101942.05
2019-01-20T13:03:09.675Z,101944.89
2019-01-20T13:05:40.030Z,101940.72
2019-01-20T13:08:09.732Z,101943.63
2019-01-20T13:10:39.737Z,101951.89
2019-01-20T13:13:10.231Z,101954.20
2019-01-20T13:15:43.356Z,101953.28
2019-01-20T13:18:13.001Z,101951.45
2019-01-20T13:20:43.775Z,101951.81
2019-01-20T13:23:13.993Z,101963.21
2019-01-20T13:25:43.714Z,101966.52
2019-01-20T13:28:13.192Z,101958.95
2019-01-20T13:30:44.389Z,101960.10
2019-01-20T13:33:13.772Z,101966.80
2019-01-20T13:35:42.973Z,101969.75
2019-01-20T13:38:15.654Z,101975.11
2019-01-20T13:40:58.861Z,101969.04
2019-01-20T13:43:28.433Z,101974.02
2019-01-20T13:45:57.795Z,101975.26
2019-01-20T13:48:26.871Z,101972.42
2019-01-20T13:50:56.025Z,101975.81
2019-01-20T13:53:25.271Z,101985.25
2019-01-20T13:56:01.039Z,101973.05
2019-01-20T13:58:24.845Z,101977.64
2019-01-20T14:00:53.880Z,101977.88
2019-01-20T14:03:23.081Z,101984.66
2019-01-20T14:05:52.317Z,101993.59
2019-01-20T14:08:21.370Z,101989.00
2019-01-20T14:10:50.506Z,101996.67
2019-01-20T14:15:55.116Z,101995.55
2019-01-20T14:18:24.369Z,101991.20
2019-01-20T14:20:53.676Z,101984.94
2019-01-20T14:23:22.830Z,101987.36
2019-01-20T14:25:53.847Z,101994.74
2019-01-20T14:28:23.389Z,101993.67
2019-01-20T14:30:52.575Z,101983.66
2019-01-20T14:33:22.689Z,101991.48
2019-01-20T14:35:53.134Z,101989.84
2019-01-20T14:38:22.503Z,102002.56
2019-01-20T14:40:51.700Z,101995.50
2019-01-20T14:43:22.232Z,102001.52
2019-01-20T14:45:51.592Z,102002.87
2019-01-20T14:48:21.208Z,102003.45
2019-01-20T14:50:50.401Z,102018.67
2019-01-20T14:53:19.543Z,102018.67
2019-01-20T14:55:50.339Z,102017.00
2019-01-20T14:58:21.730Z,102013.17
2019-01-20T15:00:50.928Z,102018.83
2019-01-20T15:03:20.234Z,102026.73
2019-01-20T15:05:49.511Z,102028.92
2019-01-20T15:08:19.897Z,102032.99
2019-01-20T15:10:49.196Z,102032.70
2019-01-20T15:13:18.397Z,102036.45
2019-01-20T15:15:48.615Z,102043.39
2019-01-20T15:18:18.024Z,102045.73
2019-01-20T15:20:47.346Z,102051.86
2019-01-20T15:23:22.591Z,102054.71
2019-01-20T15:25:51.994Z,102048.09
2019-01-20T15:28:21.356Z,102053.69
2019-01-20T15:30:50.700Z,102061.36
2019-01-20T15:33:20.008Z,102059.31
2019-01-20T15:35:49.301Z,102069.78
2019-01-20T15:38:18.722Z,102075.43
2019-01-20T15:40:48.085Z,102072.92
2019-01-20T15:43:18.838Z,102074.91
2019-01-20T15:45:48.128Z,102081.23
2019-01-20T15:48:17.448Z,102083.70
2019-01-20T15:50:46.760Z,102083.50
2019-01-20T15:53:16.207Z,102087.77
2019-01-20T15:55:45.713Z,102095.84
2019-01-20T15:58:15.557Z,102093.77
2019-01-20T16:00:45.089Z,102099.64
2019-01-20T16:03:14.439Z,102099.88
2019-01-20T16:05:43.870Z,102099.88
2019-01-20T16:08:13.262Z,102104.55
2019-01-20T16:10:43.884Z,102109.96
2019-01-20T16:13:13.583Z,102106.50
2019-01-20T16:15:43.080Z,102113.80
2019-01-20T16:18:14.296Z,102109.96
2019-01-20T16:20:42.630Z,102114.63
2019-01-20T16:23:11.935Z,102120.86
2019-01-20T16:25:41.237Z,102122.96
2019-01-20T16:28:12.573Z,102126.97
2019-01-20T16:30:44.227Z,102138.03
2019-01-20T16:33:14.486Z,102136.88
2019-01-20T16:35:43.759Z,102128.92
2019-01-20T16:38:13.449Z,102140.79
2019-01-20T16:40:43.786Z,102146.66
2019-01-20T16:43:14.008Z,102146.05
2019-01-20T16:45:46.086Z,102150.34
2019-01-20T16:48:15.531Z,102149.83
2019-01-20T16:50:44.808Z,102160.67
2019-01-20T16:53:14.139Z,102159.92
2019-01-20T16:55:43.538Z,102165.11
2019-01-20T16:58:13.077Z,102165.17
2019-01-20T17:00:44.319Z,102167.89
2019-01-20T17:03:13.633Z,102174.05
2019-01-20T17:05:43.735Z,102179.41
2019-01-20T17:08:13.162Z,102185.80
2019-01-20T17:10:43.793Z,102193.83
2019-01-20T17:13:13.511Z,102189.37
2019-01-20T17:15:44.837Z,102198.56
2019-01-20T17:18:16.082Z,102200.66
2019-01-20T17:20:45.616Z,102202.77
2019-01-20T17:23:14.976Z,102211.11
2019-01-20T17:25:47.430Z,102208.92
2019-01-20T17:28:16.837Z,102214.05
2019-01-20T17:30:46.384Z,102225.91
2019-01-20T17:33:16.050Z,102228.84
2019-01-20T17:35:46.884Z,102231.33
2019-01-20T17:38:16.216Z,102240.80
2019-01-20T17:40:46.158Z,102240.52
2019-01-20T17:43:15.402Z,102249.45
2019-01-20T17:45:48.641Z,102249.25
2019-01-20T17:48:15.169Z,102248.70
2019-01-20T17:50:45.397Z,102251.41
2019-01-20T17:53:15.777Z,102261.22
2019-01-20T17:55:45.174Z,102257.45
2019-01-20T17:58:14.484Z,102259.93
2019-01-20T18:00:47.300Z,102259.19
2019-01-20T18:03:16.810Z,102260.87
2019-01-20T18:05:46.106Z,102262.52
2019-01-20T18:08:15.325Z,102267.48
2019-01-20T18:10:44.713Z,102277.28
2019-01-20T18:13:14.095Z,102281.96
2019-01-20T18:15:43.439Z,102276.55
2019-01-20T18:18:12.773Z,102278.13
2019-01-20T18:20:42.108Z,102283.22
2019-01-20T18:23:11.364Z,102284.50
2019-01-20T18:25:40.645Z,102288.77
2019-01-20T18:28:09.929Z,102291.69
2019-01-20T18:30:39.134Z,102298.69
2019-01-20T18:33:08.473Z,102299.36
2019-01-20T18:35:37.582Z,102311.34
2019-01-20T18:38:07.828Z,102305.98
2019-01-20T18:40:37.110Z,102306.03
2019-01-20T18:43:07.614Z,102313.36
2019-01-20T18:45:38.247Z,102308.28
2019-01-20T18:48:07.502Z,102316.73
2019-01-20T18:50:38.108Z,102323.00
2019-01-20T18:53:07.439Z,102327.10
2019-01-20T18:55:42.238Z,102324.40
2019-01-20T18:58:11.435Z,102328.50
2019-01-20T19:00:46.002Z,102322.58
2019-01-20T19:03:15.267Z,102331.34
2019-01-20T19:05:44.555Z,102333.86
2019-01-20T19:08:14.577Z,102341.57
2019-01-20T19:10:44.489Z,102342.19
2019-01-20T19:13:13.791Z,102343.64
2019-01-20T19:15:44.134Z,102348.64
2019-01-20T19:18:18.842Z,102358.03
2019-01-20T19:20:42.711Z,102355.43
2019-01-20T19:23:12.029Z,102357.51
2019-01-20T19:25:42.644Z,102368.75
2019-01-20T19:28:12.197Z,102368.34
2019-01-20T19:30:46.432Z,102375.72
2019-01-20T19:33:15.763Z,102379.69
2019-01-20T19:35:45.074Z,102381.53
2019-01-20T19:38:14.300Z,102380.07
2019-01-20T19:40:44.657Z,102385.19
2019-01-20T19:43:13.970Z,102382.25
2019-01-20T19:45:46.839Z,102401.29
2019-01-20T19:48:20.181Z,102402.40
2019-01-20T19:50:45.558Z,102405.09
2019-01-20T19:53:14.828Z,102407.26
2019-01-20T19:55:44.412Z,102402.70
2019-01-20T19:58:17.998Z,102405.99
2019-01-20T20:00:47.603Z,102406.11
2019-01-20T20:03:16.796Z,102411.59
2019-01-20T20:05:46.043Z,102417.08
2019-01-20T20:08:15.414Z,102413.83
2019-01-20T20:10:44.690Z,102419.52
2019-01-20T20:13:13.891Z,102418.63
2019-01-20T20:15:43.167Z,102417.91
2019-01-20T20:18:12.448Z,102425.36
2019-01-20T20:20:41.789Z,102427.13
2019-01-20T20:23:11.105Z,102432.61
2019-01-20T20:25:40.333Z,102434.36
2019-01-20T20:28:09.641Z,102430.19
2019-01-20T20:30:39.235Z,102434.44
2019-01-20T20:33:10.178Z,102438.59
2019-01-20T20:35:39.640Z,102437.37
2019-01-20T20:38:09.083Z,102435.51
2019-01-20T20:40:38.332Z,102443.48
2019-01-20T20:43:07.812Z,102442.33
2019-01-20T20:45:37.171Z,102446.17
2019-01-20T20:48:06.451Z,102448.37
2019-01-20T20:50:35.995Z,102449.92
2019-01-20T20:53:05.520Z,102454.68
2019-01-20T20:55:34.763Z,102459.64
2019-01-20T20:58:04.097Z,102462.92
2019-01-20T21:00:38.349Z,102458.34
2019-01-20T21:03:11.239Z,102465.09
2019-01-20T21:05:41.275Z,102464.48
2019-01-20T21:08:10.462Z,102465.62
2019-01-20T21:10:39.650Z,102477.13
2019-01-20T21:13:08.933Z,102481.45
2019-01-20T21:15:38.212Z,102476.73
2019-01-20T21:18:07.619Z,102481.37
2019-01-20T21:20:36.825Z,102479.70
2019-01-20T21:23:12.156Z,102485.02
2019-01-20T21:25:35.384Z,102480.70
2019-01-20T21:28:05.788Z,102481.98
2019-01-20T21:30:35.087Z,102491.66
2019-01-20T21:33:04.370Z,102497.49
2019-01-20T21:35:33.604Z,102496.28
2019-01-20T21:38:06.866Z,102510.28
2019-01-20T21:40:33.198Z,102506.09
2019-01-20T21:43:02.538Z,102511.19
2019-01-20T21:45:31.851Z,102516.59
2019-01-20T21:48:02.604Z,102520.30
2019-01-20T21:50:32.469Z,102520.12
2019-01-20T21:53:02.704Z,102518.58
2019-01-20T21:55:32.561Z,102524.52
2019-01-20T21:58:01.743Z,102516.78
2019-01-20T22:00:33.639Z,102526.09
2019-01-20T22:03:02.982Z,102525.60
2019-01-20T22:05:32.205Z,102530.32
2019-01-20T22:08:02.278Z,102530.36
2019-01-20T22:10:31.459Z,102533.14
2019-01-20T22:13:02.074Z,102533.64
2019-01-20T22:15:31.233Z,102534.28
2019-01-20T22:18:04.742Z,102541.16
2019-01-20T22:20:34.754Z,102548.08
2019-01-20T22:23:04.028Z,102546.62
2019-01-20T22:25:33.263Z,102547.26
2019-01-20T22:28:03.169Z,102548.52
2019-01-20T22:30:32.304Z,102552.13
2019-01-20T22:33:02.246Z,102549.77
2019-01-20T22:35:31.543Z,102553.17
2019-01-20T22:38:00.938Z,102552.88
2019-01-20T22:40:30.140Z,102558.27
2019-01-20T22:43:00.491Z,102556.21
2019-01-20T22:45:30.716Z,102558.20
2019-01-20T22:48:00.110Z,102550.57
2019-01-20T22:50:29.384Z,102554.85
2019-01-20T22:52:58.560Z,102557.27
2019-01-20T22:55:27.714Z,102556.30
2019-01-20T22:58:00.941Z,102558.90
2019-01-20T23:00:39.391Z,102561.47
2019-01-20T23:03:08.635Z,102557.75
2019-01-20T23:05:37.799Z,102555.05
2019-01-20T23:08:06.949Z,102554.72
2019-01-20T23:10:36.209Z,102558.87
2019-01-20T23:13:05.581Z,102563.60
2019-01-20T23:15:35.508Z,102561.20
2019-01-20T23:18:05.198Z,102562.92
2019-01-20T23:20:34.829Z,102558.67
2019-01-20T23:23:04.130Z,102558.77
2019-01-20T23:25:33.325Z,102566.80
2019-01-20T23:28:02.879Z,102560.69
2019-01-20T23:30:32.136Z,102568.38
2019-01-20T23:33:02.315Z,102569.66
2019-01-20T23:35:31.549Z,102567.26
2019-01-20T23:38:00.705Z,102577.75
2019-01-20T23:40:29.962Z,102576.53
2019-01-20T23:42:59.088Z,102570.09
2019-01-20T23:45:28.300Z,102576.27
2019-01-20T23:47:57.485Z,102577.90
2019-01-20T23:50:26.710Z,102579.15
2019-01-20T23:52:55.832Z,102584.05
2019-01-20T23:55:25.812Z,102575.10
2019-01-20T23:57:55.057Z,102578.81
